createdAt,value
2022-11-29T00:01:20.783Z,4.78
2022-11-29T00:03:47.500Z,4.80
2022-11-29T00:06:22.214Z,5.35
2022-11-29T00:08:48.916Z,5.18
2022-11-29T00:11:38.681Z,4.60
2022-11-29T00:14:06.617Z,4.50
2022-11-29T00:16:33.500Z,4.93
2022-11-29T00:19:00.169Z,4.95
2022-11-29T00:21:26.792Z,4.68
2022-11-29T00:23:53.364Z,4.97
2022-11-29T00:26:19.879Z,4.90
2022-11-29T00:28:46.367Z,4.35
2022-11-29T00:31:20.443Z,4.70
2022-11-29T00:33:47.360Z,4.07
2022-11-29T00:36:14.289Z,4.50
2022-11-29T00:38:41.476Z,4.28
2022-11-29T00:41:08.923Z,4.00
2022-11-29T00:43:35.390Z,4.30
2022-11-29T00:46:02.166Z,4.28
2022-11-29T00:48:29.657Z,4.47
2022-11-29T00:50:56.186Z,3.58
2022-11-29T00:53:22.927Z,3.90
2022-11-29T00:55:50.420Z,3.13
2022-11-29T00:58:17.134Z,3.47
2022-11-29T01:00:43.770Z,3.58
2022-11-29T01:03:10.487Z,2.95
2022-11-29T01:05:37.146Z,3.05
2022-11-29T01:08:04.447Z,2.40
2022-11-29T01:10:30.920Z,2.97
2022-11-29T01:12:57.407Z,3.08
2022-11-29T01:15:24.207Z,3.00
2022-11-29T01:17:50.970Z,3.17
2022-11-29T01:20:17.668Z,3.63
2022-11-29T01:22:44.254Z,3.63
2022-11-29T01:25:15.458Z,3.33
2022-11-29T01:27:42.298Z,3.42
2022-11-29T01:30:10.200Z,3.65
2022-11-29T01:32:37.386Z,4.20
2022-11-29T01:35:07.395Z,3.95
2022-11-29T01:37:34.266Z,3.60
2022-11-29T01:40:00.728Z,3.45
2022-11-29T01:42:27.182Z,3.70
2022-11-29T01:45:10.314Z,3.67
2022-11-29T01:47:39.453Z,3.50
2022-11-29T01:50:07.921Z,3.72
2022-11-29T01:52:34.468Z,4.00
2022-11-29T01:55:03.710Z,3.70
2022-11-29T02:00:02.394Z,3.58
2022-11-29T02:03:14.887Z,3.38
2022-11-29T02:05:47.924Z,3.70
2022-11-29T02:08:16.815Z,3.00
2022-11-29T02:10:46.148Z,3.72
2022-11-29T02:13:29.757Z,3.78
2022-11-29T02:16:04.873Z,3.60
2022-11-29T02:18:45.368Z,3.65
2022-11-29T02:21:35.453Z,3.58
2022-11-29T02:24:20.371Z,3.50
2022-11-29T02:27:00.232Z,3.40
2022-11-29T02:29:34.570Z,3.35
2022-11-29T02:32:38.727Z,3.10
2022-11-29T02:35:24.654Z,3.80
2022-11-29T02:37:57.250Z,3.70
2022-11-29T02:41:01.133Z,3.45
2022-11-29T02:43:33.588Z,3.25
2022-11-29T02:46:25.700Z,3.35
2022-11-29T02:49:02.641Z,3.42
2022-11-29T02:51:43.273Z,3.42
2022-11-29T02:54:47.429Z,3.35
2022-11-29T02:57:37.355Z,3.30
2022-11-29T03:00:11.196Z,3.63
2022-11-29T03:03:02.390Z,3.55
2022-11-29T03:05:42.038Z,3.92
2022-11-29T03:08:30.111Z,3.40
2022-11-29T03:11:03.605Z,3.78
2022-11-29T03:13:52.868Z,3.90
2022-11-29T03:16:43.090Z,3.72
2022-11-29T03:19:34.952Z,3.30
2022-11-29T03:22:12.066Z,2.95
2022-11-29T03:24:52.299Z,3.60
2022-11-29T03:27:29.992Z,3.58
2022-11-29T03:29:59.310Z,3.55
2022-11-29T03:32:31.518Z,3.70
2022-11-29T03:35:20.950Z,3.78
2022-11-29T03:40:25.594Z,2.88
2022-11-29T03:42:59.617Z,3.33
2022-11-29T03:45:32.162Z,3.38
2022-11-29T03:48:22.099Z,3.45
2022-11-29T03:51:01.822Z,3.20
2022-11-29T03:53:36.925Z,3.20
2022-11-29T03:56:22.042Z,2.85
2022-11-29T03:59:37.611Z,3.42
2022-11-29T04:02:20.216Z,3.05
2022-11-29T04:05:10.655Z,3.10
2022-11-29T04:08:04.290Z,3.15
2022-11-29T04:10:51.311Z,2.90
2022-11-29T04:13:39.675Z,2.72
2022-11-29T04:16:24.441Z,3.50
2022-11-29T04:19:12.270Z,3.53
2022-11-29T04:21:41.793Z,3.33
2022-11-29T04:27:05.755Z,3.13
2022-11-29T04:29:50.556Z,3.28
2022-11-29T04:32:45.032Z,3.47
2022-11-29T04:35:23.755Z,3.22
2022-11-29T04:38:08.778Z,4.03
2022-11-29T04:40:50.409Z,3.45
2022-11-29T04:43:16.875Z,4.55
2022-11-29T04:45:57.400Z,4.53
2022-11-29T04:48:50.592Z,5.13
2022-11-29T04:51:23.759Z,4.40
2022-11-29T04:54:23.291Z,5.40
2022-11-29T04:56:54.066Z,5.25
2022-11-29T04:59:35.980Z,5.57
2022-11-29T05:02:25.687Z,5.47
2022-11-29T05:05:08.067Z,5.78
2022-11-29T05:07:49.359Z,6.85
2022-11-29T05:10:33.734Z,6.15
2022-11-29T05:13:06.317Z,6.45
2022-11-29T05:15:50.544Z,6.45
2022-11-29T05:18:54.917Z,7.18
2022-11-29T05:21:30.547Z,7.28
2022-11-29T05:24:17.553Z,7.32
2022-11-29T05:26:51.219Z,8.05
2022-11-29T05:29:54.760Z,8.07
2022-11-29T05:32:28.702Z,7.63
2022-11-29T05:35:10.603Z,8.43
2022-11-29T05:37:50.213Z,9.65
2022-11-29T05:40:34.991Z,8.40
2022-11-29T05:43:38.265Z,9.65
2022-11-29T05:46:18.832Z,10.05
2022-11-29T05:48:54.362Z,10.00
2022-11-29T05:51:33.376Z,10.20
2022-11-29T05:54:30.107Z,10.15
2022-11-29T05:57:14.215Z,9.98
2022-11-29T05:59:42.247Z,10.13
2022-11-29T06:02:20.708Z,12.20
2022-11-29T06:04:49.896Z,10.15
2022-11-29T06:07:20.829Z,11.45
2022-11-29T06:10:00.606Z,11.57
2022-11-29T06:12:30.984Z,11.20
2022-11-29T06:15:20.854Z,11.52
2022-11-29T06:17:57.386Z,11.68
2022-11-29T06:20:43.875Z,11.65
2022-11-29T06:23:29.640Z,11.57
2022-11-29T06:26:04.047Z,11.73
2022-11-29T06:29:02.048Z,11.82
2022-11-29T06:31:43.984Z,11.98
2022-11-29T06:34:10.567Z,12.68
2022-11-29T06:37:02.034Z,11.57
2022-11-29T06:39:28.811Z,12.02
2022-11-29T06:41:55.426Z,11.23
2022-11-29T06:44:22.388Z,12.00
2022-11-29T06:46:56.958Z,11.23
2022-11-29T06:49:27.705Z,11.75
2022-11-29T06:52:07.016Z,12.38
2022-11-29T06:54:39.556Z,13.95
2022-11-29T06:57:25.068Z,11.50
2022-11-29T06:59:57.617Z,11.73
2022-11-29T07:02:44.607Z,12.50
2022-11-29T07:05:23.419Z,11.70
2022-11-29T07:07:53.254Z,12.65
2022-11-29T07:10:20.878Z,12.02
2022-11-29T07:12:49.231Z,12.10
2022-11-29T07:15:18.916Z,12.15
2022-11-29T07:18:08.765Z,11.45
2022-11-29T07:21:07.293Z,11.70
2022-11-29T07:23:52.198Z,13.43
2022-11-29T07:26:26.271Z,13.10
2022-11-29T07:29:27.962Z,12.95
2022-11-29T07:32:14.152Z,12.35
2022-11-29T07:34:53.677Z,14.13
2022-11-29T07:42:41.687Z,12.02
2022-11-29T07:45:22.460Z,14.13
2022-11-29T07:47:50.216Z,13.23
2022-11-29T07:50:16.879Z,12.90
2022-11-29T07:52:43.750Z,14.68
2022-11-29T07:55:21.352Z,14.10
2022-11-29T07:57:48.495Z,13.60
2022-11-29T08:00:15.911Z,13.38
2022-11-29T08:02:43.109Z,13.77
2022-11-29T08:05:10.128Z,13.73
2022-11-29T08:07:38.003Z,15.27
2022-11-29T08:10:06.404Z,14.43
2022-11-29T08:12:33.022Z,13.77
2022-11-29T08:14:59.799Z,14.10
2022-11-29T08:17:26.738Z,13.27
2022-11-29T08:19:53.298Z,12.88
2022-11-29T08:22:19.793Z,13.70
2022-11-29T08:24:46.706Z,13.95
2022-11-29T08:27:14.108Z,13.45
2022-11-29T08:29:40.649Z,14.23
2022-11-29T08:32:07.220Z,13.70
2022-11-29T08:34:33.793Z,14.68
2022-11-29T08:37:00.392Z,14.77
2022-11-29T08:39:26.995Z,14.45
2022-11-29T08:41:53.500Z,12.52
2022-11-29T08:44:20.158Z,13.68
2022-11-29T08:47:05.534Z,14.05
2022-11-29T08:49:32.090Z,13.75
2022-11-29T08:52:16.908Z,13.55
2022-11-29T08:54:44.188Z,14.77
2022-11-29T08:57:38.656Z,14.52
2022-11-29T08:59:57.798Z,13.32
2022-11-29T09:02:24.439Z,13.77
2022-11-29T09:04:51.027Z,13.73
2022-11-29T09:07:17.683Z,14.88
2022-11-29T09:09:44.442Z,14.25
2022-11-29T09:12:10.983Z,14.10
2022-11-29T09:14:37.693Z,15.00
2022-11-29T09:17:04.520Z,13.90
2022-11-29T09:19:31.199Z,13.32
2022-11-29T09:21:57.744Z,13.40
2022-11-29T09:24:24.234Z,14.02
2022-11-29T09:26:50.816Z,15.15
2022-11-29T09:29:17.766Z,14.50
2022-11-29T09:31:47.514Z,14.93
2022-11-29T09:34:15.279Z,15.80
2022-11-29T09:36:44.082Z,14.82
2022-11-29T09:39:12.340Z,15.27
2022-11-29T09:42:09.639Z,14.70
2022-11-29T09:44:59.340Z,14.70
2022-11-29T09:47:38.051Z,15.68
2022-11-29T09:50:36.146Z,15.80
2022-11-29T09:53:17.964Z,15.35
2022-11-29T09:56:23.615Z,14.85
2022-11-29T09:58:58.138Z,14.52
2022-11-29T10:01:46.720Z,16.13
2022-11-29T10:04:22.535Z,14.60
2022-11-29T10:07:09.026Z,15.75
2022-11-29T10:09:41.707Z,15.45
2022-11-29T10:12:13.632Z,15.55
2022-11-29T10:14:49.787Z,17.70
2022-11-29T10:17:34.077Z,15.52
2022-11-29T10:20:13.334Z,16.50
2022-11-29T10:22:53.529Z,15.50
2022-11-29T10:25:30.439Z,15.50
2022-11-29T10:27:56.999Z,16.90
2022-11-29T10:30:23.646Z,15.63
2022-11-29T10:32:58.351Z,16.63
2022-11-29T10:35:24.915Z,16.73
2022-11-29T10:38:22.741Z,15.93
2022-11-29T10:40:44.677Z,15.60
2022-11-29T10:43:11.467Z,14.88
2022-11-29T10:45:50.905Z,14.93
2022-11-29T10:48:20.380Z,15.70
2022-11-29T10:50:49.072Z,13.10
2022-11-29T10:53:35.892Z,13.95
2022-11-29T10:56:05.802Z,14.20
2022-11-29T10:58:32.836Z,12.70
2022-11-29T11:01:07.021Z,13.40
2022-11-29T11:03:42.490Z,12.70
2022-11-29T11:06:15.049Z,12.23
2022-11-29T11:08:44.340Z,12.38
2022-11-29T11:11:12.163Z,12.30
2022-11-29T11:13:41.016Z,10.90
2022-11-29T11:16:19.123Z,11.73
2022-11-29T11:18:47.281Z,11.00
2022-11-29T11:21:16.301Z,10.43
2022-11-29T11:23:58.435Z,11.70
2022-11-29T11:26:26.362Z,11.18
2022-11-29T11:29:01.256Z,10.45
2022-11-29T11:31:29.704Z,9.75
2022-11-29T11:33:56.512Z,10.10
2022-11-29T11:36:25.026Z,10.32
2022-11-29T11:38:52.969Z,10.95
2022-11-29T11:41:49.413Z,9.60
2022-11-29T11:47:27.762Z,9.85
2022-11-29T11:50:00.405Z,10.20
2022-11-29T11:52:32.971Z,9.02
2022-11-29T11:55:06.212Z,9.30
2022-11-29T11:57:32.881Z,9.43
2022-11-29T12:00:06.399Z,9.43
2022-11-29T12:02:39.043Z,8.27
2022-11-29T12:05:12.483Z,9.20
2022-11-29T12:10:38.619Z,8.70
2022-11-29T12:13:05.316Z,7.43
2022-11-29T12:15:36.195Z,7.90
2022-11-29T12:18:12.286Z,8.30
2022-11-29T12:20:53.158Z,7.78
2022-11-29T12:23:34.422Z,7.60
2022-11-29T12:26:28.576Z,7.45
2022-11-29T12:31:42.151Z,7.63
2022-11-29T12:34:23.695Z,7.90
2022-11-29T12:37:21.546Z,7.18
2022-11-29T12:40:05.254Z,8.13
2022-11-29T12:42:46.911Z,7.88
2022-11-29T12:45:32.474Z,7.93
2022-11-29T12:48:26.964Z,7.60
2022-11-29T12:51:06.821Z,7.00
2022-11-29T12:53:45.438Z,7.22
2022-11-29T12:56:48.785Z,7.63
2022-11-29T12:59:30.167Z,7.65
2022-11-29T13:02:32.183Z,6.70
2022-11-29T13:05:04.103Z,6.50
2022-11-29T13:08:01.473Z,6.55
2022-11-29T13:10:49.490Z,7.05
2022-11-29T13:13:31.471Z,6.03
2022-11-29T13:16:30.887Z,6.45
2022-11-29T13:19:05.559Z,5.80
2022-11-29T13:21:39.113Z,6.47
2022-11-29T13:24:26.039Z,6.53
2022-11-29T13:26:52.924Z,5.30
2022-11-29T13:29:20.378Z,5.90
2022-11-29T13:31:47.798Z,4.85
2022-11-29T13:34:23.026Z,4.75
2022-11-29T13:37:14.264Z,4.80
2022-11-29T13:39:55.992Z,4.85
2022-11-29T13:42:36.508Z,4.55
2022-11-29T13:45:33.920Z,4.30
2022-11-29T13:48:02.257Z,4.18
2022-11-29T13:50:37.446Z,4.68
2022-11-29T13:53:13.535Z,4.13
2022-11-29T13:56:08.173Z,4.45
2022-11-29T13:58:39.619Z,4.82
2022-11-29T14:01:13.594Z,4.78
2022-11-29T14:03:45.110Z,4.43
2022-11-29T14:06:12.863Z,5.10
2022-11-29T14:09:18.416Z,4.53
2022-11-29T14:11:50.142Z,4.57
2022-11-29T14:14:16.742Z,4.78
2022-11-29T14:16:43.166Z,4.53
2022-11-29T14:19:10.001Z,4.68
2022-11-29T14:22:01.881Z,4.30
2022-11-29T14:24:37.271Z,3.90
2022-11-29T14:27:06.988Z,3.67
2022-11-29T14:29:53.721Z,3.75
2022-11-29T14:33:01.170Z,3.90
2022-11-29T14:35:27.660Z,4.65
2022-11-29T14:38:04.782Z,4.20
2022-11-29T14:40:44.352Z,4.07
2022-11-29T14:43:22.946Z,4.30
2022-11-29T14:46:13.976Z,5.10
2022-11-29T14:49:01.526Z,5.18
2022-11-29T14:51:30.798Z,4.97
2022-11-29T14:54:15.569Z,4.40
2022-11-29T14:56:45.101Z,5.43
2022-11-29T15:01:57.295Z,4.75
2022-11-29T15:04:25.754Z,4.47
2022-11-29T15:06:54.758Z,4.90
2022-11-29T15:09:22.443Z,5.90
2022-11-29T15:12:02.024Z,5.55
2022-11-29T15:14:47.616Z,5.82
2022-11-29T15:17:48.835Z,5.97
2022-11-29T15:20:20.640Z,4.43
2022-11-29T15:22:55.369Z,5.43
2022-11-29T15:25:31.423Z,5.68
2022-11-29T15:27:59.455Z,5.00
2022-11-29T15:30:36.524Z,4.57
2022-11-29T15:33:20.320Z,5.82
2022-11-29T15:35:55.271Z,5.70
2022-11-29T15:38:23.866Z,6.22
2022-11-29T15:40:53.100Z,5.73
2022-11-29T15:43:23.580Z,5.95
2022-11-29T15:45:56.952Z,6.53
2022-11-29T15:48:32.502Z,6.35
2022-11-29T15:51:09.925Z,6.13
2022-11-29T15:53:38.446Z,5.68
2022-11-29T15:56:14.176Z,6.78
2022-11-29T15:58:40.922Z,6.22
2022-11-29T16:01:08.199Z,6.20
2022-11-29T16:03:35.959Z,7.10
2022-11-29T16:06:30.090Z,6.82
2022-11-29T16:08:56.740Z,6.55
2022-11-29T16:11:25.274Z,7.35
2022-11-29T16:14:10.788Z,6.87
2022-11-29T16:16:38.968Z,6.95
2022-11-29T16:19:26.030Z,7.82
2022-11-29T16:22:17.009Z,7.80
2022-11-29T16:25:01.193Z,7.50
2022-11-29T16:27:32.100Z,7.57
2022-11-29T16:29:58.808Z,7.20
2022-11-29T16:32:32.531Z,6.75
2022-11-29T16:35:07.984Z,7.18
2022-11-29T16:37:42.407Z,7.40
2022-11-29T16:40:21.271Z,7.00
2022-11-29T16:43:03.088Z,7.68
2022-11-29T16:45:42.845Z,7.15
2022-11-29T16:48:26.415Z,7.13
2022-11-29T16:51:11.298Z,7.55
2022-11-29T16:53:42.727Z,7.72
2022-11-29T16:56:13.023Z,7.40
2022-11-29T16:59:16.609Z,7.65
2022-11-29T17:01:29.291Z,7.95
2022-11-29T17:03:57.506Z,8.43
2022-11-29T17:06:24.874Z,8.73
2022-11-29T17:08:52.564Z,7.78
2022-11-29T17:11:19.363Z,7.80
2022-11-29T17:13:50.141Z,7.70
2022-11-29T17:16:18.969Z,8.32
2022-11-29T17:18:45.677Z,7.88
2022-11-29T17:21:23.027Z,8.75
2022-11-29T17:23:49.926Z,7.15
2022-11-29T17:26:17.235Z,8.13
2022-11-29T17:28:44.712Z,8.90
2022-11-29T17:31:12.487Z,8.07
2022-11-29T17:33:39.167Z,8.13
2022-11-29T17:36:07.114Z,9.18
2022-11-29T17:38:34.192Z,8.23
2022-11-29T17:41:06.447Z,8.27
2022-11-29T17:43:34.696Z,7.97
2022-11-29T17:46:12.213Z,8.32
2022-11-29T17:48:38.953Z,8.98
2022-11-29T17:51:22.872Z,8.07
2022-11-29T17:53:54.228Z,8.52
2022-11-29T17:56:23.245Z,9.10
2022-11-29T17:58:54.275Z,8.35
2022-11-29T18:01:23.194Z,7.97
2022-11-29T18:03:53.177Z,8.10
2022-11-29T18:06:41.102Z,7.00
2022-11-29T18:09:09.402Z,8.38
2022-11-29T18:11:48.626Z,7.90
2022-11-29T18:16:47.028Z,7.13
2022-11-29T18:19:18.517Z,8.13
2022-11-29T18:21:45.536Z,8.20
2022-11-29T18:24:12.220Z,8.20
2022-11-29T18:26:39.170Z,7.82
2022-11-29T18:29:06.564Z,7.72
2022-11-29T18:31:35.800Z,8.80
2022-11-29T18:34:07.154Z,8.27
2022-11-29T18:36:36.382Z,7.68
2022-11-29T18:39:09.035Z,8.57
2022-11-29T18:41:36.703Z,8.10
2022-11-29T18:44:09.219Z,7.95
2022-11-29T18:46:37.616Z,8.18
2022-11-29T18:49:09.057Z,8.50
2022-11-29T18:51:37.529Z,7.72
2022-11-29T18:54:04.710Z,7.97
2022-11-29T18:56:32.847Z,8.25
2022-11-29T18:59:02.004Z,7.53
2022-11-29T19:01:30.425Z,8.07
2022-11-29T19:04:01.798Z,8.07
2022-11-29T19:06:39.288Z,8.95
2022-11-29T19:09:08.510Z,7.97
2022-11-29T19:11:35.366Z,8.67
2022-11-29T19:14:07.971Z,8.00
2022-11-29T19:16:34.737Z,8.45
2022-11-29T19:19:01.718Z,7.82
2022-11-29T19:21:31.698Z,8.73
2022-11-29T19:24:00.285Z,7.95
2022-11-29T19:26:29.066Z,8.23
2022-11-29T19:28:56.210Z,8.73
2022-11-29T19:31:25.057Z,10.48
2022-11-29T19:33:52.808Z,9.13
2022-11-29T19:36:30.618Z,10.55
2022-11-29T19:38:59.612Z,10.18
2022-11-29T19:41:33.897Z,8.82
2022-11-29T19:44:02.971Z,10.68
2022-11-29T19:46:33.675Z,10.13
2022-11-29T19:49:02.306Z,9.43
2022-11-29T19:51:29.596Z,9.05
2022-11-29T19:53:57.987Z,9.07
2022-11-29T19:56:25.531Z,8.57
2022-11-29T19:58:52.592Z,7.70
2022-11-29T20:01:25.100Z,8.85
2022-11-29T20:03:52.317Z,8.38
2022-11-29T20:06:19.169Z,8.13
2022-11-29T20:08:45.973Z,8.50
2022-11-29T20:11:13.722Z,7.68
2022-11-29T20:13:41.990Z,8.48
2022-11-29T20:16:11.061Z,8.50
2022-11-29T20:18:39.865Z,8.55
2022-11-29T20:21:11.448Z,7.85
2022-11-29T20:23:39.167Z,8.75
2022-11-29T20:26:08.368Z,8.60
2022-11-29T20:28:35.693Z,6.93
2022-11-29T20:31:08.632Z,7.57
2022-11-29T20:33:35.444Z,8.27
2022-11-29T20:36:17.336Z,7.55
2022-11-29T20:38:52.815Z,8.02
2022-11-29T20:41:26.566Z,6.88
2022-11-29T20:43:58.967Z,7.68
2022-11-29T20:46:25.955Z,7.25
2022-11-29T20:48:53.616Z,7.35
2022-11-29T20:51:26.059Z,7.47
2022-11-29T20:53:52.573Z,7.32
2022-11-29T20:56:19.164Z,8.23
2022-11-29T20:58:45.726Z,7.10
2022-11-29T21:01:12.397Z,7.63
2022-11-29T21:03:39.320Z,7.63
2022-11-29T21:06:06.620Z,8.30
2022-11-29T21:08:34.348Z,8.63
2022-11-29T21:11:07.502Z,7.50
2022-11-29T21:13:34.548Z,7.78
2022-11-29T21:16:01.502Z,7.93
2022-11-29T21:18:29.582Z,7.65
2022-11-29T21:21:21.013Z,6.60
2022-11-29T21:24:06.745Z,6.80
2022-11-29T21:26:41.795Z,6.45
2022-11-29T21:29:22.846Z,6.90
2022-11-29T21:31:51.905Z,5.90
2022-11-29T21:34:19.339Z,6.32
2022-11-29T21:36:53.196Z,6.22
2022-11-29T21:39:19.696Z,7.95
2022-11-29T21:41:49.847Z,8.65
2022-11-29T21:44:16.423Z,9.10
2022-11-29T21:46:42.964Z,9.48
2022-11-29T21:49:09.566Z,9.50
2022-11-29T21:51:36.234Z,9.25
2022-11-29T21:54:03.047Z,8.80
2022-11-29T21:56:29.619Z,8.38
2022-11-29T21:58:56.139Z,8.90
2022-11-29T22:01:22.734Z,9.00
2022-11-29T22:03:52.323Z,10.55
2022-11-29T22:08:47.929Z,10.75
2022-11-29T22:11:30.882Z,11.10
2022-11-29T22:14:14.174Z,10.50
2022-11-29T22:16:47.246Z,10.27
2022-11-29T22:19:18.467Z,13.38
2022-11-29T22:21:47.940Z,12.90
2022-11-29T22:24:16.310Z,13.27
2022-11-29T22:26:43.749Z,11.68
2022-11-29T22:29:11.403Z,9.32
2022-11-29T22:31:37.986Z,7.53
2022-11-29T22:34:04.594Z,7.47
2022-11-29T22:36:31.336Z,6.30
2022-11-29T22:38:57.882Z,6.30
2022-11-29T22:41:24.540Z,7.05
2022-11-29T22:43:51.572Z,6.88
2022-11-29T22:46:23.502Z,6.55
2022-11-29T22:48:52.711Z,6.43
2022-11-29T22:51:30.755Z,7.07
2022-11-29T22:53:59.498Z,6.30
2022-11-29T22:56:28.926Z,6.57
2022-11-29T22:58:55.706Z,6.57
2022-11-29T23:01:24.334Z,6.30
2022-11-29T23:03:53.788Z,6.97
2022-11-29T23:08:52.202Z,6.45
2022-11-29T23:11:24.356Z,6.30
2022-11-29T23:13:50.937Z,5.90
2022-11-29T23:16:20.631Z,6.50
2022-11-29T23:18:47.709Z,6.30
2022-11-29T23:21:24.898Z,6.32
2022-11-29T23:23:56.278Z,6.45
2022-11-29T23:26:37.546Z,6.43
2022-11-29T23:29:05.897Z,5.90
2022-11-29T23:31:33.211Z,6.00
2022-11-29T23:34:00.083Z,6.30
2022-11-29T23:36:26.629Z,5.93
2022-11-29T23:38:53.198Z,6.05
2022-11-29T23:41:20.195Z,6.82
2022-11-29T23:43:46.726Z,7.38
2022-11-29T23:46:16.286Z,8.82
2022-11-29T23:48:43.192Z,10.55
2022-11-29T23:51:10.359Z,11.52
2022-11-29T23:53:37.024Z,10.23
2022-11-29T23:56:06.761Z,10.68
2022-11-29T23:58:34.072Z,10.30
